EWG473 EGKK-EDDK
Flight info
| Callsign | EWG473 |
|---|---|
| Flight time | N/A |
| Altitude | 33000 |
| Route | ODVIK Y311 DVR L9 KONAN UL607 SPI T857 DENOV T861 ERUKI ERUKI1B |
| Aircraft | A319/M-SDE2E3FGIJ1RWXY/EB1 |
Departure
| Time | N/A |
|---|---|
| Airport | London Gatwick Airport (EGKK) |
Arrival
| Time | 2026-04-26 16:47 |
|---|---|
| Airport | Cologne Bonn Airport (EDDK) |
| Time | Latitude | Longitude | Altitude | Speed | Heading |
|---|---|---|---|---|---|
| 2026-04-26 16:01 | 51.16599 | 0.49744 | 15972 ft | 330 kts | 91° |
| 2026-04-26 16:01 | 51.16594 | 0.53525 | 16142 ft | 353 kts | 91° |
| 2026-04-26 16:01 | 51.16588 | 0.57517 | 16502 ft | 366 kts | 91° |
| 2026-04-26 16:01 | 51.16584 | 0.61610 | 17137 ft | 372 kts | 91° |
| 2026-04-26 16:02 | 51.16580 | 0.65748 | 17816 ft | 376 kts | 91° |
| 2026-04-26 16:02 | 51.16575 | 0.69932 | 18497 ft | 380 kts | 91° |
| 2026-04-26 16:02 | 51.16566 | 0.74164 | 19084 ft | 384 kts | 91° |
| 2026-04-26 16:02 | 51.16559 | 0.77047 | 19479 ft | 387 kts | 91° |
| 2026-04-26 16:03 | 51.16542 | 0.82768 | 20278 ft | 393 kts | 91° |
| 2026-04-26 16:03 | 51.16530 | 0.87133 | 20840 ft | 397 kts | 91° |
| 2026-04-26 16:03 | 51.16516 | 0.91553 | 21399 ft | 401 kts | 91° |
| 2026-04-26 16:03 | 51.16500 | 0.96013 | 21961 ft | 405 kts | 91° |
| 2026-04-26 16:04 | 51.16481 | 1.00519 | 22513 ft | 409 kts | 91° |
| 2026-04-26 16:04 | 51.16460 | 1.05075 | 23046 ft | 413 kts | 91° |
| 2026-04-26 16:04 | 51.16436 | 1.09677 | 23586 ft | 418 kts | 91° |
| 2026-04-26 16:04 | 51.16412 | 1.14331 | 24075 ft | 422 kts | 91° |
| 2026-04-26 16:05 | 51.16385 | 1.19026 | 24526 ft | 425 kts | 91° |
| 2026-04-26 16:05 | 51.16354 | 1.23746 | 24983 ft | 428 kts | 91° |
| 2026-04-26 16:05 | 51.16322 | 1.28504 | 25431 ft | 431 kts | 91° |
| 2026-04-26 16:05 | 51.16286 | 1.33294 | 25867 ft | 434 kts | 91° |
| 2026-04-26 16:06 | 51.16224 | 1.38112 | 26304 ft | 437 kts | 92° |
| 2026-04-26 16:06 | 51.16063 | 1.42966 | 26734 ft | 440 kts | 94° |
| 2026-04-26 16:06 | 51.15826 | 1.47834 | 27154 ft | 442 kts | 95° |
| 2026-04-26 16:06 | 51.15548 | 1.52727 | 27569 ft | 445 kts | 96° |
| 2026-04-26 16:07 | 51.15259 | 1.57657 | 27984 ft | 448 kts | 95° |
| 2026-04-26 16:07 | 51.14982 | 1.62613 | 28400 ft | 451 kts | 95° |
| 2026-04-26 16:07 | 51.14715 | 1.67674 | 28818 ft | 454 kts | 95° |
| 2026-04-26 16:07 | 51.14460 | 1.72701 | 29225 ft | 457 kts | 94° |
| 2026-04-26 16:08 | 51.14213 | 1.77761 | 29631 ft | 460 kts | 94° |
| 2026-04-26 16:08 | 51.14049 | 1.81126 | 29892 ft | 462 kts | 94° |
| 2026-04-26 16:08 | 51.13708 | 1.87977 | 30402 ft | 466 kts | 94° |
| 2026-04-26 16:08 | 51.13445 | 1.93128 | 30725 ft | 468 kts | 94° |
| 2026-04-26 16:09 | 51.13176 | 1.98309 | 31040 ft | 471 kts | 94° |
| 2026-04-26 16:09 | 51.12905 | 2.03445 | 31358 ft | 473 kts | 94° |
| 2026-04-26 16:09 | 51.12622 | 2.08746 | 31675 ft | 476 kts | 94° |
| 2026-04-26 16:09 | 51.12338 | 2.14006 | 31980 ft | 478 kts | 94° |
| 2026-04-26 16:10 | 51.12049 | 2.19279 | 32370 ft | 478 kts | 94° |
| 2026-04-26 16:10 | 51.11758 | 2.24541 | 32819 ft | 477 kts | 94° |
| 2026-04-26 16:10 | 51.11465 | 2.29797 | 33203 ft | 477 kts | 94° |
| 2026-04-26 16:11 | 51.10896 | 2.40167 | 33316 ft | 460 kts | 94° |
| 2026-04-26 16:11 | 51.10336 | 2.50170 | 33318 ft | 455 kts | 94° |
| 2026-04-26 16:12 | 51.09763 | 2.60197 | 33320 ft | 455 kts | 94° |
| 2026-04-26 16:12 | 51.07716 | 2.74906 | 33323 ft | 456 kts | 106° |
| 2026-04-26 16:13 | 51.05956 | 2.84581 | 33322 ft | 455 kts | 106° |
| 2026-04-26 16:13 | 51.04202 | 2.94249 | 33316 ft | 455 kts | 106° |
| 2026-04-26 16:14 | 51.02439 | 3.03895 | 33306 ft | 455 kts | 106° |
| 2026-04-26 16:15 | 50.99766 | 3.18365 | 33288 ft | 455 kts | 106° |
| 2026-04-26 16:15 | 50.97979 | 3.27993 | 33275 ft | 455 kts | 106° |
| 2026-04-26 16:16 | 50.95278 | 3.42437 | 33267 ft | 455 kts | 106° |
| 2026-04-26 16:16 | 50.93469 | 3.52058 | 33260 ft | 455 kts | 106° |
| 2026-04-26 16:17 | 50.91649 | 3.61677 | 33262 ft | 456 kts | 106° |
| 2026-04-26 16:17 | 50.89810 | 3.71291 | 33265 ft | 456 kts | 106° |
| 2026-04-26 16:18 | 50.87031 | 3.85693 | 33265 ft | 456 kts | 106° |
| 2026-04-26 16:19 | 50.84230 | 4.00086 | 33267 ft | 456 kts | 107° |
| 2026-04-26 16:20 | 50.81403 | 4.14455 | 33263 ft | 456 kts | 107° |
| 2026-04-26 16:20 | 50.78573 | 4.28824 | 33269 ft | 457 kts | 107° |
| 2026-04-26 16:21 | 50.76991 | 4.36779 | 33265 ft | 456 kts | 107° |
| 2026-04-26 16:21 | 50.74755 | 4.47949 | 33267 ft | 456 kts | 107° |
| 2026-04-26 16:22 | 50.73158 | 4.55891 | 33269 ft | 457 kts | 107° |
| 2026-04-26 16:22 | 50.71246 | 4.65447 | 33095 ft | 457 kts | 106° |
| 2026-04-26 16:23 | 50.70312 | 4.70241 | 32834 ft | 457 kts | 106° |
| 2026-04-26 16:23 | 50.69391 | 4.75036 | 32575 ft | 457 kts | 105° |
| 2026-04-26 16:23 | 50.68472 | 4.79836 | 32316 ft | 457 kts | 105° |
| 2026-04-26 16:23 | 50.67548 | 4.84624 | 32056 ft | 456 kts | 106° |
| 2026-04-26 16:24 | 50.66620 | 4.89392 | 31804 ft | 454 kts | 106° |
| 2026-04-26 16:24 | 50.65688 | 4.94136 | 31548 ft | 452 kts | 106° |
| 2026-04-26 16:24 | 50.64734 | 4.98852 | 31292 ft | 451 kts | 107° |
| 2026-04-26 16:24 | 50.63768 | 5.03538 | 31038 ft | 449 kts | 107° |
| 2026-04-26 16:25 | 50.62799 | 5.08203 | 30800 ft | 447 kts | 107° |
| 2026-04-26 16:25 | 50.61829 | 5.12848 | 30560 ft | 446 kts | 107° |
| 2026-04-26 16:25 | 50.60863 | 5.17474 | 30305 ft | 444 kts | 107° |
| 2026-04-26 16:25 | 50.59898 | 5.22086 | 30025 ft | 442 kts | 107° |
| 2026-04-26 16:26 | 50.58943 | 5.26669 | 29745 ft | 440 kts | 107° |
| 2026-04-26 16:26 | 50.57994 | 5.31237 | 29462 ft | 438 kts | 107° |
| 2026-04-26 16:26 | 50.57139 | 5.35815 | 29184 ft | 434 kts | 98° |
| 2026-04-26 16:26 | 50.56953 | 5.40502 | 28910 ft | 427 kts | 82° |
| 2026-04-26 16:27 | 50.57315 | 5.45113 | 28645 ft | 424 kts | 79° |
| 2026-04-26 16:27 | 50.57708 | 5.49694 | 28372 ft | 422 kts | 79° |
| 2026-04-26 16:27 | 50.58105 | 5.54263 | 28103 ft | 420 kts | 79° |
| 2026-04-26 16:27 | 50.58500 | 5.58803 | 27841 ft | 418 kts | 79° |
| 2026-04-26 16:28 | 50.58893 | 5.63330 | 27577 ft | 416 kts | 79° |
| 2026-04-26 16:28 | 50.59280 | 5.67836 | 27322 ft | 415 kts | 79° |
| 2026-04-26 16:28 | 50.59663 | 5.72330 | 27066 ft | 413 kts | 79° |
| 2026-04-26 16:28 | 50.60044 | 5.76805 | 26809 ft | 411 kts | 79° |
| 2026-04-26 16:29 | 50.60420 | 5.81260 | 26556 ft | 410 kts | 79° |
| 2026-04-26 16:29 | 50.60792 | 5.85701 | 26305 ft | 408 kts | 79° |
| 2026-04-26 16:29 | 50.61160 | 5.90126 | 26059 ft | 407 kts | 79° |
| 2026-04-26 16:29 | 50.61526 | 5.94531 | 25809 ft | 405 kts | 79° |
| 2026-04-26 16:30 | 50.61888 | 5.98925 | 25556 ft | 404 kts | 79° |
| 2026-04-26 16:30 | 50.62246 | 6.03303 | 25320 ft | 402 kts | 79° |
| 2026-04-26 16:30 | 50.62603 | 6.07666 | 25082 ft | 401 kts | 79° |
| 2026-04-26 16:30 | 50.62958 | 6.12013 | 24848 ft | 400 kts | 79° |
| 2026-04-26 16:31 | 50.63309 | 6.16348 | 24611 ft | 398 kts | 79° |
| 2026-04-26 16:31 | 50.63602 | 6.20683 | 24378 ft | 399 kts | 86° |
| 2026-04-26 16:31 | 50.63469 | 6.25055 | 23956 ft | 402 kts | 92° |
| 2026-04-26 16:31 | 50.63253 | 6.29502 | 22946 ft | 411 kts | 92° |
| 2026-04-26 16:32 | 50.63026 | 6.33989 | 22173 ft | 410 kts | 92° |
| 2026-04-26 16:32 | 50.62874 | 6.36944 | 21732 ft | 408 kts | 92° |
| 2026-04-26 16:32 | 50.62565 | 6.42850 | 20868 ft | 401 kts | 93° |
| 2026-04-26 16:32 | 50.62334 | 6.47208 | 20229 ft | 397 kts | 93° |
| 2026-04-26 16:33 | 50.62108 | 6.51498 | 19496 ft | 391 kts | 93° |
| 2026-04-26 16:33 | 50.61884 | 6.55734 | 18732 ft | 386 kts | 94° |
| 2026-04-26 16:33 | 50.61662 | 6.59915 | 17879 ft | 380 kts | 94° |
| 2026-04-26 16:33 | 50.61534 | 6.62316 | 17380 ft | 378 kts | 94° |
| 2026-04-26 16:34 | 50.61313 | 6.66409 | 16549 ft | 373 kts | 94° |
| 2026-04-26 16:34 | 50.61095 | 6.70450 | 15710 ft | 368 kts | 94° |
| 2026-04-26 16:34 | 50.60896 | 6.74446 | 14924 ft | 364 kts | 90° |
| 2026-04-26 16:34 | 50.61070 | 6.78377 | 14170 ft | 357 kts | 81° |
| 2026-04-26 16:35 | 50.61358 | 6.82168 | 13907 ft | 338 kts | 81° |
| 2026-04-26 16:35 | 50.61625 | 6.85755 | 13521 ft | 324 kts | 81° |
| 2026-04-26 16:35 | 50.61884 | 6.89254 | 12953 ft | 319 kts | 81° |
| 2026-04-26 16:35 | 50.62142 | 6.92702 | 12364 ft | 316 kts | 81° |
| 2026-04-26 16:36 | 50.62398 | 6.96116 | 11781 ft | 312 kts | 81° |
| 2026-04-26 16:36 | 50.62648 | 6.99495 | 11228 ft | 309 kts | 81° |
| 2026-04-26 16:36 | 50.62895 | 7.02836 | 10656 ft | 306 kts | 81° |
| 2026-04-26 16:36 | 50.63139 | 7.06145 | 10088 ft | 303 kts | 81° |
| 2026-04-26 16:37 | 50.63382 | 7.09424 | 9394 ft | 302 kts | 81° |
| 2026-04-26 16:37 | 50.63630 | 7.12734 | 8650 ft | 306 kts | 81° |
| 2026-04-26 16:37 | 50.63867 | 7.15963 | 8507 ft | 287 kts | 81° |
| 2026-04-26 16:37 | 50.64012 | 7.17985 | 8423 ft | 275 kts | 81° |
| 2026-04-26 16:38 | 50.64285 | 7.21862 | 8104 ft | 260 kts | 81° |
| 2026-04-26 16:38 | 50.64486 | 7.24665 | 7803 ft | 255 kts | 81° |
| 2026-04-26 16:38 | 50.64685 | 7.27426 | 7418 ft | 253 kts | 80° |
| 2026-04-26 16:38 | 50.64883 | 7.30165 | 6989 ft | 251 kts | 80° |
| 2026-04-26 16:39 | 50.64879 | 7.32899 | 6551 ft | 252 kts | 102° |
| 2026-04-26 16:39 | 50.64270 | 7.35484 | 6102 ft | 252 kts | 112° |
| 2026-04-26 16:39 | 50.63797 | 7.38091 | 5630 ft | 246 kts | 88° |
| 2026-04-26 16:39 | 50.64202 | 7.40621 | 5307 ft | 236 kts | 52° |
| 2026-04-26 16:40 | 50.65379 | 7.42191 | 5261 ft | 214 kts | 19° |
| 2026-04-26 16:40 | 50.66770 | 7.42503 | 5164 ft | 199 kts | 350° |
| 2026-04-26 16:40 | 50.68007 | 7.41731 | 5000 ft | 189 kts | 322° |
| 2026-04-26 16:40 | 50.68970 | 7.40381 | 4817 ft | 181 kts | 317° |
| 2026-04-26 16:41 | 50.69894 | 7.39058 | 4538 ft | 178 kts | 317° |
| 2026-04-26 16:41 | 50.70801 | 7.37759 | 4303 ft | 174 kts | 317° |
| 2026-04-26 16:41 | 50.71681 | 7.36498 | 4074 ft | 168 kts | 318° |
| 2026-04-26 16:41 | 50.72538 | 7.35269 | 3862 ft | 166 kts | 317° |
| 2026-04-26 16:42 | 50.73386 | 7.34053 | 3643 ft | 165 kts | 318° |
| 2026-04-26 16:42 | 50.74226 | 7.32846 | 3414 ft | 161 kts | 318° |
| 2026-04-26 16:42 | 50.75031 | 7.31689 | 3206 ft | 156 kts | 318° |
| 2026-04-26 16:42 | 50.75818 | 7.30557 | 3001 ft | 145 kts | 317° |
| 2026-04-26 16:43 | 50.76522 | 7.29546 | 2818 ft | 132 kts | 317° |
| 2026-04-26 16:43 | 50.77187 | 7.28589 | 2653 ft | 129 kts | 317° |
| 2026-04-26 16:43 | 50.77852 | 7.27623 | 2467 ft | 130 kts | 316° |
| 2026-04-26 16:43 | 50.78521 | 7.26683 | 2317 ft | 128 kts | 318° |
| 2026-04-26 16:44 | 50.79180 | 7.25728 | 2156 ft | 128 kts | 317° |
| 2026-04-26 16:44 | 50.79847 | 7.24776 | 1954 ft | 130 kts | 317° |
| 2026-04-26 16:44 | 50.80513 | 7.23831 | 1726 ft | 129 kts | 317° |
| 2026-04-26 16:44 | 50.81168 | 7.22857 | 1544 ft | 129 kts | 316° |
| 2026-04-26 16:45 | 50.81830 | 7.21900 | 1330 ft | 127 kts | 317° |
| 2026-04-26 16:45 | 50.82485 | 7.20961 | 1150 ft | 127 kts | 316° |
| 2026-04-26 16:45 | 50.83139 | 7.20025 | 1014 ft | 127 kts | 316° |
| 2026-04-26 16:45 | 50.83790 | 7.19076 | 776 ft | 128 kts | 315° |
| 2026-04-26 16:46 | 50.84452 | 7.18130 | 628 ft | 128 kts | 317° |
| 2026-04-26 16:46 | 50.85102 | 7.17181 | 466 ft | 126 kts | 315° |
| 2026-04-26 16:46 | 50.85746 | 7.16249 | 315 ft | 123 kts | 315° |
| 2026-04-26 16:46 | 50.86292 | 7.15451 | 293 ft | 87 kts | 318° |
| 2026-04-26 16:47 | 50.86603 | 7.14998 | 275 ft | 39 kts | 317° |
| 2026-04-26 16:47 | 50.86745 | 7.14790 | 268 ft | 21 kts | 317° |
| 2026-04-26 16:47 | 50.86829 | 7.14650 | 264 ft | 19 kts | 305° |
| 2026-04-26 16:47 | 50.86871 | 7.14477 | 261 ft | 17 kts | 280° |
| 2026-04-26 16:48 | 50.86880 | 7.14386 | 259 ft | 10 kts | 278° |
| 2026-04-26 16:48 | 50.86888 | 7.14298 | 257 ft | 11 kts | 278° |
| 2026-04-26 16:48 | 50.86902 | 7.14148 | 255 ft | 16 kts | 278° |
| 2026-04-26 16:48 | 50.86927 | 7.14055 | 254 ft | 3 kts | 307° |
| 2026-04-26 16:49 | 50.86927 | 7.14036 | 253 ft | 3 kts | 249° |
| 2026-04-26 16:49 | 50.86915 | 7.13976 | 252 ft | 9 kts | 258° |
| 2026-04-26 16:49 | 50.86954 | 7.13872 | 247 ft | 16 kts | 321° |
| 2026-04-26 16:49 | 50.87050 | 7.13744 | 242 ft | 19 kts | 317° |
| 2026-04-26 16:50 | 50.87136 | 7.13615 | 239 ft | 19 kts | 316° |
| 2026-04-26 16:50 | 50.87247 | 7.13451 | 234 ft | 25 kts | 318° |
| 2026-04-26 16:50 | 50.87363 | 7.13286 | 232 ft | 23 kts | 318° |
| 2026-04-26 16:50 | 50.87492 | 7.13095 | 232 ft | 28 kts | 316° |
| 2026-04-26 16:51 | 50.87583 | 7.12968 | 232 ft | 13 kts | 318° |
| 2026-04-26 16:51 | 50.87603 | 7.12940 | 232 ft | 14 kts | 318° |
| 2026-04-26 16:51 | 50.87686 | 7.12821 | 232 ft | 18 kts | 318° |
| 2026-04-26 16:52 | 50.87778 | 7.12689 | 232 ft | 15 kts | 317° |
| 2026-04-26 16:52 | 50.87822 | 7.12628 | 232 ft | 12 kts | 324° |
| 2026-04-26 16:52 | 50.87923 | 7.12625 | 232 ft | 12 kts | 11° |
| 2026-04-26 16:52 | 50.88003 | 7.12565 | 232 ft | 15 kts | 308° |
| 2026-04-26 16:53 | 50.88045 | 7.12450 | 233 ft | 10 kts | 299° |
| 2026-04-26 16:53 | 50.88060 | 7.12413 | 233 ft | 12 kts | 302° |
| 2026-04-26 16:53 | 50.88084 | 7.12356 | 234 ft | 13 kts | 305° |
| 2026-04-26 16:53 | 50.88122 | 7.12272 | 232 ft | 10 kts | 306° |
| 2026-04-26 16:54 | 50.88168 | 7.12171 | 232 ft | 11 kts | 306° |
| 2026-04-26 16:54 | 50.88213 | 7.12073 | 232 ft | 9 kts | 306° |
| 2026-04-26 16:54 | 50.88245 | 7.12005 | 232 ft | 2 kts | 306° |
| 2026-04-26 16:54 | 50.88250 | 7.11969 | 235 ft | 5 kts | 257° |
| 2026-04-26 16:55 | 50.88221 | 7.11928 | 232 ft | 5 kts | 215° |
| 2026-04-26 16:55 | 50.88200 | 7.11905 | 232 ft | 3 kts | 215° |
| 2026-04-26 16:55 | 50.88200 | 7.11904 | 232 ft | 0 kts | 215° |